Details From MPTO - Tocumen Intl
To SKRG - JOSE MARIA CORDOVA
Flight Number -
Tags generated
Created
Modified
Stats Distance 296 nm / 549 km
Max Altitude 33,600 ft / 10,241 m
Waypoints 5
Social Downloads 2
Likes 0
Share VATSIM

Download

Looking for another format? Having issues loading an existing format? Contact us
Advertisement - Login to hide

Notes

Basic altitude profile: - Ascent Rate: 2500ft/min - Ascent Speed: 250kts - Cruise Altitude: 370ft - Cruise Speed: 420kts - Descent Rate: 1500ft/min - Descent Speed: 250kts Options: - Use NATs: yes - Use PACOTS: yes - Use low airways: yes - Use high airways: yes

Route

MPTO PUNBA UA323 IVROS A323 ASTOR SKRG

ID Type Via Altitude Latitude Longitude Leg Dist Tot Dist Heading (true) Name
O MPTO APT - 0 ft / 0 m 9.07136˚ -79.38346˚ - 0 nm - Tocumen Intl
PUNBA FIX - 25,200 ft / 7,681 m 8.13386˚ -78.58511˚ 73 nm 73 nm 140° / 140° -
IVROS FIX UA323 (AWY-HI) 33,600 ft / 10,241 m 7.56806˚ -77.73308˚ 61 nm 134 nm 124° / 124° -
ASTOR FIX A323 (AWY-LO) 17,300 ft / 5,273 m 6.84694˚ -76.68500˚ 75 nm 210 nm 125° / 125° -
O SKRG APT - 0 ft / 0 m 6.16453˚ -75.42312˚ 85 nm 296 nm 118° / 119° JOSE MARIA CORDOVA

Altitude Profile

Advertisement - Login to hide

Weather


0- 5 10 15 20 25 30 35+ Temperature / ° C

Clouds and Precipitation
Forecast for 2017-12-16 06:00 UTC. Updated 41 minutes ago

Ground ~20,000 ft ~40,000 ft Winds

MPTO

Details ICAO MPTO (PTY)
Name Tocumen Intl
Region Panama
Timezone America/Panama (UTC-5.0)
Stats Elevation 135 ft / 41 m (AMSL)
Location 9.071364° -79.383458°
Runways 2
Magnetic Variation 4.532° W

METAR

MPTO 160600Z 00000KT 9999 FEW020 24/24 Q1010 NOSIG

Decode

TAF

Not found

Departure Runways

ID Width Length Bearing (true) Bearing (mag) Surface Threshold Offset Overrun Length
03L 200 ft / 61 m 8,798 ft / 2,682 m 30.67° 35.20° Asphalt 0 ft / 0 m 0 ft / 0 m
03R 148 ft / 45 m 10,008 ft / 3,051 m 29.33° 33.86° Concrete 0 ft / 0 m 198 ft / 60 m
21L 148 ft / 45 m 10,008 ft / 3,051 m 209.33° 213.86° Concrete 0 ft / 0 m 198 ft / 60 m
21R 200 ft / 61 m 8,798 ft / 2,682 m 210.67° 215.20° Asphalt 0 ft / 0 m 0 ft / 0 m

SKRG

Details ICAO SKRG (MDE)
Name JOSE MARIA CORDOVA
Region Colombia
Timezone America/Bogota (UTC-5.0)
Stats Elevation 6,955 ft / 2,120 m (AMSL)
Location 6.164532° -75.423119°
Runways 1
Magnetic Variation 6.631° W

METAR

SKRG 160600Z 00000KT 6000 VCFG SCT007 SCT200 15/14 A3027 RMK VCFG/S

Decode

TAF

Not found

Destination Runways

ID Width Length Bearing (true) Bearing (mag) Surface Threshold Offset Overrun Length
18 148 ft / 45 m 11,547 ft / 3,520 m 179.62° 186.25° Asphalt 0 ft / 0 m 98 ft / 30 m
36 148 ft / 45 m 11,547 ft / 3,520 m 359.62° 6.25° Asphalt 0 ft / 0 m 98 ft / 30 m

Approach Navaids

Runway Type Ident Frequency Range Bearing (true) Bearing (mag) Slope Elevation
36 Localiser IMDE 110.90 MHz 18 nm / 33 km 359.62° 6.25° - 6,955 ft / 2,120 m (AMSL)
36 Glidescope IMDE 110.90 MHz 10 nm / 19 km 359.62° 6.25° 3.00° 6,955 ft / 2,120 m (AMSL)

Popular Alternatives